createdAt,value
2022-08-22T00:00:23.915Z,3.20
2022-08-22T00:02:47.979Z,2.10
2022-08-22T00:02:58.607Z,2.93
2022-08-22T00:03:01.919Z,2.97
2022-08-22T00:03:08.205Z,3.10
2022-08-22T00:03:25.076Z,3.10
2022-08-22T00:06:06.162Z,3.13
2022-08-22T00:08:43.144Z,3.40
2022-08-22T00:11:27.987Z,2.90
2022-08-22T00:14:02.158Z,2.90
2022-08-22T00:16:35.389Z,2.63
2022-08-22T00:19:13.175Z,2.63
2022-08-22T00:21:50.763Z,2.80
2022-08-22T00:24:24.468Z,3.10
2022-08-22T00:27:00.247Z,2.83
2022-08-22T00:29:34.428Z,3.10
2022-08-22T00:32:11.792Z,2.60
2022-08-22T00:34:47.010Z,3.13
2022-08-22T00:37:24.440Z,2.80
2022-08-22T00:39:59.482Z,3.20
2022-08-22T00:42:47.907Z,2.97
2022-08-22T00:45:39.264Z,3.10
2022-08-22T00:48:21.973Z,2.77
2022-08-22T00:51:06.333Z,2.50
2022-08-22T00:53:51.306Z,2.67
2022-08-22T00:56:52.492Z,3.10
2022-08-22T00:59:43.911Z,2.90
2022-08-22T01:02:29.646Z,2.17
2022-08-22T01:05:18.661Z,2.50
2022-08-22T01:08:03.119Z,2.73
2022-08-22T01:10:50.425Z,2.10
2022-08-22T01:13:35.744Z,3.17
2022-08-22T01:16:17.996Z,2.53
2022-08-22T01:19:33.665Z,3.00
2022-08-22T01:22:26.046Z,2.90
2022-08-22T01:25:40.771Z,2.77
2022-08-22T01:28:38.654Z,2.40
2022-08-22T01:31:44.393Z,2.90
2022-08-22T01:34:42.797Z,3.00
2022-08-22T01:37:48.436Z,2.87
2022-08-22T01:40:53.702Z,3.03
2022-08-22T01:43:59.994Z,2.97
2022-08-22T01:46:44.358Z,2.80
2022-08-22T01:49:20.773Z,2.37
2022-08-22T01:51:54.741Z,2.73
2022-08-22T01:54:32.174Z,2.97
2022-08-22T01:57:03.706Z,2.97
2022-08-22T01:59:34.999Z,3.40
2022-08-22T02:02:45.709Z,2.67
2022-08-22T02:05:24.716Z,2.47
2022-08-22T02:08:00.166Z,3.50
2022-08-22T02:10:44.528Z,2.80
2022-08-22T02:13:30.271Z,2.60
2022-08-22T02:16:09.305Z,2.90
2022-08-22T02:18:51.430Z,3.00
2022-08-22T02:21:27.384Z,2.60
2022-08-22T02:24:02.797Z,2.90
2022-08-22T02:26:45.165Z,2.37
2022-08-22T02:29:16.665Z,2.80
2022-08-22T02:31:50.204Z,2.30
2022-08-22T02:34:26.077Z,2.40
2022-08-22T02:36:58.866Z,2.60
2022-08-22T02:39:33.978Z,2.87
2022-08-22T02:42:17.224Z,2.60
2022-08-22T02:44:53.851Z,2.60
2022-08-22T02:47:30.501Z,2.53
2022-08-22T02:50:05.831Z,2.90
2022-08-22T02:52:53.887Z,3.53
2022-08-22T02:55:36.250Z,2.60
2022-08-22T02:58:14.412Z,3.10
2022-08-22T03:00:47.226Z,2.73
2022-08-22T03:03:23.998Z,3.77
2022-08-22T03:06:02.062Z,3.30
2022-08-22T03:08:33.085Z,3.00
2022-08-22T03:11:19.072Z,3.30
2022-08-22T03:13:56.965Z,3.17
2022-08-22T03:16:34.547Z,3.87
2022-08-22T03:19:07.193Z,3.40
2022-08-22T03:21:46.635Z,2.77
2022-08-22T03:24:21.276Z,3.17
2022-08-22T03:26:57.656Z,3.07
2022-08-22T03:29:29.235Z,3.07
2022-08-22T03:32:11.423Z,2.73
2022-08-22T03:34:54.377Z,2.90
2022-08-22T03:37:28.092Z,2.97
2022-08-22T03:40:01.926Z,2.80
2022-08-22T03:43:08.505Z,3.10
2022-08-22T03:46:12.957Z,3.10
2022-08-22T03:49:13.413Z,2.67
2022-08-22T03:51:56.069Z,3.20
2022-08-22T03:55:05.223Z,3.20
2022-08-22T03:58:27.614Z,2.77
2022-08-22T04:01:32.436Z,3.20
2022-08-22T04:04:39.820Z,2.90
2022-08-22T04:07:38.269Z,2.33
2022-08-22T04:10:40.307Z,3.23
2022-08-22T04:13:36.966Z,3.23
2022-08-22T04:16:41.387Z,3.33
2022-08-22T04:19:42.208Z,3.53
2022-08-22T04:22:34.548Z,3.60
2022-08-22T04:25:08.248Z,2.80
2022-08-22T04:27:42.167Z,2.77
2022-08-22T04:30:20.788Z,2.83
2022-08-22T04:32:54.263Z,3.40
2022-08-22T04:35:32.245Z,3.37
2022-08-22T04:38:03.821Z,3.40
2022-08-22T04:40:37.166Z,2.13
2022-08-22T04:43:10.432Z,3.20
2022-08-22T04:45:47.586Z,2.90
2022-08-22T04:48:23.594Z,2.90
2022-08-22T04:50:56.008Z,2.70
2022-08-22T04:53:39.150Z,3.27
2022-08-22T04:56:16.550Z,3.17
2022-08-22T04:58:49.738Z,3.53
2022-08-22T05:01:22.337Z,3.40
2022-08-22T05:03:58.324Z,3.10
2022-08-22T05:06:29.800Z,2.97
2022-08-22T05:09:02.498Z,2.90
2022-08-22T05:11:32.234Z,3.00
2022-08-22T05:14:05.129Z,2.70
2022-08-22T05:16:39.335Z,3.30
2022-08-22T05:19:15.807Z,2.67
2022-08-22T05:21:47.940Z,2.73
2022-08-22T05:24:22.862Z,2.53
2022-08-22T05:26:58.659Z,2.23
2022-08-22T05:29:30.915Z,2.43
2022-08-22T05:32:04.423Z,2.47
2022-08-22T05:34:38.003Z,2.60
2022-08-22T05:37:13.189Z,2.60
2022-08-22T05:39:47.040Z,2.20
2022-08-22T05:42:23.230Z,2.53
2022-08-22T05:44:51.603Z,2.43
2022-08-22T05:47:24.402Z,2.67
2022-08-22T05:50:00.275Z,2.50
2022-08-22T05:52:43.516Z,2.37
2022-08-22T05:55:22.119Z,3.00
2022-08-22T05:57:54.784Z,2.40
2022-08-22T06:00:26.525Z,2.10
2022-08-22T06:03:08.255Z,2.80
2022-08-22T06:05:42.923Z,1.70
2022-08-22T06:08:19.717Z,2.10
2022-08-22T06:10:51.065Z,2.33
2022-08-22T06:13:24.732Z,2.40
2022-08-22T06:15:57.783Z,1.40
2022-08-22T06:18:29.054Z,2.23
2022-08-22T06:21:00.396Z,2.57
2022-08-22T06:23:30.723Z,2.00
2022-08-22T06:26:01.341Z,2.30
2022-08-22T06:28:55.126Z,2.10
2022-08-22T06:31:27.654Z,2.50
2022-08-22T06:34:01.100Z,2.23
2022-08-22T06:36:34.004Z,2.07
2022-08-22T06:39:10.877Z,2.40
2022-08-22T06:41:44.121Z,2.53
2022-08-22T06:44:14.954Z,2.27
2022-08-22T06:46:46.990Z,2.63
2022-08-22T06:49:17.093Z,2.57
2022-08-22T06:51:45.986Z,2.47
2022-08-22T06:54:18.864Z,3.40
2022-08-22T06:56:49.378Z,2.70
2022-08-22T06:59:19.626Z,2.57
2022-08-22T07:01:53.495Z,2.90
2022-08-22T07:04:26.653Z,3.20
2022-08-22T07:06:57.403Z,2.60
2022-08-22T07:09:28.520Z,2.73
2022-08-22T07:12:00.344Z,2.60
2022-08-22T07:14:32.118Z,3.00
2022-08-22T07:17:02.083Z,3.00
2022-08-22T07:19:36.903Z,3.23
2022-08-22T07:22:13.240Z,2.77
2022-08-22T07:24:47.924Z,3.13
2022-08-22T07:27:27.264Z,2.93
2022-08-22T07:30:02.957Z,3.37
2022-08-22T07:32:43.255Z,2.90
2022-08-22T07:35:16.375Z,3.20
2022-08-22T07:38:03.356Z,2.43
2022-08-22T07:40:39.817Z,2.67
2022-08-22T07:43:18.393Z,2.47
2022-08-22T07:45:50.771Z,3.00
2022-08-22T07:48:26.300Z,2.37
2022-08-22T07:51:09.344Z,3.10
2022-08-22T07:53:43.339Z,2.77
2022-08-22T07:56:16.855Z,3.10
2022-08-22T07:58:48.282Z,3.03
2022-08-22T08:01:20.314Z,2.50
2022-08-22T08:03:53.418Z,2.53
2022-08-22T08:06:24.725Z,2.57
2022-08-22T08:08:54.420Z,3.00
2022-08-22T08:11:24.962Z,3.17
2022-08-22T08:13:57.877Z,2.87
2022-08-22T08:16:28.751Z,2.27
2022-08-22T08:18:59.574Z,3.10
2022-08-22T08:21:32.212Z,2.57
2022-08-22T08:24:02.163Z,2.30
2022-08-22T08:26:34.398Z,2.57
2022-08-22T08:29:03.577Z,2.30
2022-08-22T08:31:35.561Z,2.30
2022-08-22T08:34:07.325Z,2.83
2022-08-22T08:36:51.185Z,2.40
2022-08-22T08:39:25.103Z,2.53
2022-08-22T08:42:19.055Z,2.50
2022-08-22T08:45:24.664Z,2.30
2022-08-22T08:48:20.974Z,2.90
2022-08-22T08:51:02.155Z,2.50
2022-08-22T08:53:52.875Z,2.40
2022-08-22T08:56:30.541Z,2.60
2022-08-22T09:02:13.813Z,2.60
2022-08-22T09:05:37.869Z,2.47
2022-08-22T09:08:35.523Z,2.60
2022-08-22T09:11:44.478Z,2.00
2022-08-22T09:14:26.243Z,2.30
2022-08-22T09:17:30.381Z,2.30
2022-08-22T09:20:27.379Z,1.80
2022-08-22T09:23:21.463Z,2.30
2022-08-22T09:25:55.932Z,1.93
2022-08-22T09:28:32.306Z,2.07
2022-08-22T09:31:47.404Z,1.90
2022-08-22T09:34:23.891Z,2.90
2022-08-22T09:37:13.974Z,2.23
2022-08-22T09:39:51.580Z,2.50
2022-08-22T09:42:24.058Z,2.10
2022-08-22T09:45:00.197Z,2.00
2022-08-22T09:47:35.264Z,2.00
2022-08-22T09:50:17.122Z,1.90
2022-08-22T09:52:57.981Z,2.00
2022-08-22T09:55:42.199Z,2.20
2022-08-22T09:58:19.151Z,2.40
2022-08-22T10:00:57.116Z,1.87
2022-08-22T10:03:53.622Z,2.03
2022-08-22T10:06:30.090Z,2.20
2022-08-22T10:09:04.800Z,2.40
2022-08-22T10:11:43.290Z,2.70
2022-08-22T10:14:22.373Z,1.90
2022-08-22T10:17:00.435Z,1.80
2022-08-22T10:19:35.706Z,2.20
2022-08-22T10:22:21.517Z,2.53
2022-08-22T10:24:58.775Z,2.40
2022-08-22T10:27:42.673Z,1.83
2022-08-22T10:30:13.421Z,2.30
2022-08-22T10:32:49.971Z,2.53
2022-08-22T10:35:26.591Z,1.97
2022-08-22T10:38:00.143Z,2.00
2022-08-22T10:40:33.151Z,2.10
2022-08-22T10:43:10.696Z,2.37
2022-08-22T10:45:43.507Z,1.80
2022-08-22T10:48:33.078Z,2.00
2022-08-22T10:51:20.870Z,1.90
2022-08-22T10:54:28.217Z,1.50
2022-08-22T10:57:06.882Z,1.73
2022-08-22T10:59:43.760Z,1.37
2022-08-22T11:02:28.330Z,1.87
2022-08-22T11:05:23.086Z,2.37
2022-08-22T11:08:01.878Z,1.90
2022-08-22T11:10:40.631Z,2.00
2022-08-22T11:13:16.428Z,1.80
2022-08-22T11:16:01.367Z,2.37
2022-08-22T11:19:01.845Z,2.10
2022-08-22T11:21:43.009Z,1.90
2022-08-22T11:24:35.461Z,1.63
2022-08-22T11:27:17.640Z,2.10
2022-08-22T11:29:58.622Z,1.77
2022-08-22T11:32:35.821Z,2.10
2022-08-22T11:35:09.032Z,1.80
2022-08-22T11:37:47.779Z,1.63
2022-08-22T11:40:38.559Z,1.67
2022-08-22T11:43:25.739Z,2.13
2022-08-22T11:45:59.781Z,2.67
2022-08-22T11:48:37.813Z,1.90
2022-08-22T11:51:14.850Z,1.60
2022-08-22T11:53:48.417Z,1.73
2022-08-22T11:56:24.695Z,1.87
2022-08-22T11:59:01.349Z,1.63
2022-08-22T12:01:37.368Z,2.03
2022-08-22T12:04:13.321Z,1.87
2022-08-22T12:06:51.414Z,1.83
2022-08-22T12:09:50.752Z,2.10
2022-08-22T12:12:28.858Z,1.67
2022-08-22T12:15:04.320Z,1.60
2022-08-22T12:18:15.313Z,1.93
2022-08-22T12:21:26.770Z,2.10
2022-08-22T12:24:19.367Z,2.00
2022-08-22T12:27:09.029Z,1.50
2022-08-22T12:29:45.472Z,1.33
2022-08-22T12:32:51.059Z,1.73
2022-08-22T12:35:35.509Z,2.00
2022-08-22T12:38:28.317Z,1.40
2022-08-22T12:41:27.843Z,1.40
2022-08-22T12:44:16.426Z,1.53
2022-08-22T12:47:00.067Z,1.67
2022-08-22T12:49:52.359Z,1.90
2022-08-22T12:52:33.085Z,1.77
2022-08-22T12:55:22.235Z,1.43
2022-08-22T12:58:03.508Z,1.53
2022-08-22T13:00:35.423Z,1.73
2022-08-22T13:03:09.570Z,1.80
2022-08-22T13:05:45.316Z,1.50
2022-08-22T13:08:30.160Z,1.70
2022-08-22T13:11:02.249Z,2.00
2022-08-22T13:13:37.290Z,1.20
2022-08-22T13:16:11.709Z,1.50
2022-08-22T13:18:46.588Z,1.50
2022-08-22T13:21:31.667Z,1.60
2022-08-22T13:24:10.645Z,1.43
2022-08-22T13:26:49.161Z,1.67
2022-08-22T13:29:39.142Z,1.30
2022-08-22T13:32:19.434Z,1.70
2022-08-22T13:34:55.111Z,1.73
2022-08-22T13:37:30.852Z,1.70
2022-08-22T13:40:03.589Z,1.57
2022-08-22T13:42:34.456Z,1.70
2022-08-22T13:45:15.643Z,1.80
2022-08-22T13:47:52.077Z,1.60
2022-08-22T13:50:24.493Z,1.90
2022-08-22T13:53:00.575Z,1.90
2022-08-22T13:55:34.075Z,2.40
2022-08-22T13:58:07.721Z,1.50
2022-08-22T14:01:05.391Z,2.10
2022-08-22T14:03:40.877Z,1.67
2022-08-22T14:06:37.680Z,1.87
2022-08-22T14:09:31.866Z,1.50
2022-08-22T14:12:12.625Z,1.37
2022-08-22T14:14:45.931Z,1.70
2022-08-22T14:17:19.390Z,1.00
2022-08-22T14:19:59.780Z,1.53
2022-08-22T14:22:35.458Z,1.53
2022-08-22T14:25:08.749Z,1.90
2022-08-22T14:27:40.038Z,1.30
2022-08-22T14:30:17.030Z,1.60
2022-08-22T14:32:51.387Z,1.33
2022-08-22T14:35:33.576Z,1.37
2022-08-22T14:38:20.510Z,1.93
2022-08-22T14:41:03.215Z,1.33
2022-08-22T14:43:49.257Z,1.50
2022-08-22T14:46:23.720Z,1.60
2022-08-22T14:49:20.755Z,1.33
2022-08-22T14:51:58.329Z,1.60
2022-08-22T14:54:29.721Z,1.80
2022-08-22T14:57:00.908Z,1.67
2022-08-22T14:59:38.046Z,1.60
2022-08-22T15:02:11.100Z,1.60
2022-08-22T15:04:41.883Z,1.10
2022-08-22T15:07:11.610Z,1.73
2022-08-22T15:09:44.210Z,1.10
2022-08-22T15:12:26.738Z,1.20
2022-08-22T15:14:57.353Z,1.47
2022-08-22T15:17:39.664Z,1.40
2022-08-22T15:20:28.505Z,1.57
2022-08-22T15:23:02.058Z,1.20
2022-08-22T15:25:34.205Z,1.60
2022-08-22T15:28:14.209Z,1.60
2022-08-22T15:30:44.875Z,1.60
2022-08-22T15:33:16.964Z,1.43
2022-08-22T15:35:47.950Z,1.27
2022-08-22T15:38:28.550Z,1.10
2022-08-22T15:40:57.678Z,1.80
2022-08-22T15:43:34.918Z,1.10
2022-08-22T15:46:18.248Z,1.60
2022-08-22T15:48:57.838Z,1.03
2022-08-22T15:51:37.093Z,1.50
2022-08-22T15:54:24.498Z,1.33
2022-08-22T15:57:14.179Z,1.77
2022-08-22T15:59:54.755Z,1.40
2022-08-22T16:02:35.331Z,1.70
2022-08-22T16:05:23.813Z,2.07
2022-08-22T16:08:04.050Z,1.60
2022-08-22T16:10:37.554Z,1.10
2022-08-22T16:13:16.605Z,1.57
2022-08-22T16:16:00.274Z,1.30
2022-08-22T16:19:05.652Z,1.30
2022-08-22T16:22:06.184Z,1.70
2022-08-22T16:24:50.470Z,1.50
2022-08-22T16:27:25.656Z,1.60
2022-08-22T16:30:04.866Z,1.50
2022-08-22T16:32:35.742Z,1.73
2022-08-22T16:35:03.623Z,1.80
2022-08-22T16:37:50.217Z,1.77
2022-08-22T16:40:25.942Z,2.37
2022-08-22T16:43:14.016Z,1.60
2022-08-22T16:45:45.432Z,1.27
2022-08-22T16:48:27.590Z,1.43
2022-08-22T16:51:14.711Z,1.60
2022-08-22T16:54:12.173Z,1.33
2022-08-22T16:57:07.672Z,1.37
2022-08-22T16:59:42.635Z,1.33
2022-08-22T17:02:37.398Z,1.70
2022-08-22T17:05:21.843Z,1.60
2022-08-22T17:08:10.814Z,1.53
2022-08-22T17:10:57.896Z,1.60
2022-08-22T17:13:40.393Z,1.53
2022-08-22T17:16:23.669Z,1.30
2022-08-22T17:19:05.257Z,1.73
2022-08-22T17:21:50.729Z,1.20
2022-08-22T17:24:33.843Z,1.37
2022-08-22T17:27:07.693Z,1.07
2022-08-22T17:29:45.216Z,1.40
2022-08-22T17:32:22.820Z,1.10
2022-08-22T17:34:59.369Z,1.07
2022-08-22T17:37:40.851Z,1.20
2022-08-22T17:40:23.079Z,1.10
2022-08-22T17:43:06.912Z,1.00
2022-08-22T17:45:47.324Z,1.13
2022-08-22T17:48:20.050Z,1.50
2022-08-22T17:50:53.183Z,1.10
2022-08-22T17:53:34.352Z,1.20
2022-08-22T17:56:12.713Z,1.40
2022-08-22T17:58:46.075Z,1.70
2022-08-22T18:01:16.736Z,1.20
2022-08-22T18:03:52.005Z,1.10
2022-08-22T18:06:23.484Z,1.00
2022-08-22T18:11:49.498Z,1.27
2022-08-22T18:14:26.566Z,1.77
2022-08-22T18:16:56.640Z,1.40
2022-08-22T18:19:41.192Z,1.10
2022-08-22T18:22:13.171Z,1.50
2022-08-22T18:24:49.519Z,1.30
2022-08-22T18:27:30.009Z,1.70
2022-08-22T18:30:15.005Z,1.70
2022-08-22T18:32:50.873Z,1.70
2022-08-22T18:35:24.332Z,1.80
2022-08-22T18:37:58.669Z,1.70
2022-08-22T18:40:34.446Z,2.10
2022-08-22T18:43:14.194Z,2.60
2022-08-22T18:46:26.161Z,1.80
2022-08-22T18:49:14.506Z,2.40
2022-08-22T18:51:42.390Z,2.17
2022-08-22T18:54:36.418Z,1.80
2022-08-22T18:57:24.294Z,1.60
2022-08-22T19:00:04.847Z,1.80
2022-08-22T19:02:57.719Z,1.83
2022-08-22T19:05:40.717Z,2.33
2022-08-22T19:08:53.735Z,2.60
2022-08-22T19:11:37.269Z,2.57
2022-08-22T19:14:24.923Z,1.73
2022-08-22T19:17:11.908Z,2.23
2022-08-22T19:20:11.818Z,2.17
2022-08-22T19:22:40.659Z,2.23
2022-08-22T19:25:14.768Z,1.80
2022-08-22T19:27:44.704Z,1.80
2022-08-22T19:30:44.894Z,1.83
2022-08-22T19:33:19.239Z,1.80
2022-08-22T19:36:10.835Z,2.33
2022-08-22T19:38:54.955Z,1.93
2022-08-22T19:41:50.722Z,1.80
2022-08-22T19:44:40.427Z,2.13
2022-08-22T19:47:28.167Z,1.90
2022-08-22T19:50:01.288Z,1.67
2022-08-22T19:52:50.243Z,1.73
2022-08-22T19:55:26.533Z,1.70
2022-08-22T19:58:02.389Z,1.50
2022-08-22T20:00:52.809Z,1.60
2022-08-22T20:03:32.395Z,1.53
2022-08-22T20:06:13.745Z,2.23
2022-08-22T20:09:01.607Z,2.33
2022-08-22T20:11:42.310Z,1.57
2022-08-22T20:14:12.853Z,1.60
2022-08-22T20:17:18.505Z,1.43
2022-08-22T20:22:46.544Z,1.87
2022-08-22T20:25:42.488Z,1.30
2022-08-22T20:28:14.713Z,1.90
2022-08-22T20:30:46.709Z,1.80
2022-08-22T20:33:20.582Z,2.03
2022-08-22T20:35:54.439Z,1.80
2022-08-22T20:38:27.740Z,1.30
2022-08-22T20:41:11.154Z,1.50
2022-08-22T20:43:43.916Z,1.40
2022-08-22T20:46:28.166Z,1.77
2022-08-22T20:48:57.326Z,1.37
2022-08-22T20:51:30.548Z,1.70
2022-08-22T20:54:00.789Z,2.00
2022-08-22T20:56:38.318Z,1.50
2022-08-22T20:59:22.941Z,1.63
2022-08-22T21:01:57.297Z,1.60
2022-08-22T21:04:28.569Z,1.77
2022-08-22T21:07:02.323Z,1.70
2022-08-22T21:09:53.251Z,1.93
2022-08-22T21:12:22.274Z,2.20
2022-08-22T21:14:50.234Z,2.07
2022-08-22T21:17:21.727Z,1.70
2022-08-22T21:19:49.688Z,1.90
2022-08-22T21:22:25.506Z,1.60
2022-08-22T21:24:56.250Z,2.33
2022-08-22T21:27:28.841Z,1.70
2022-08-22T21:29:58.572Z,2.00
2022-08-22T21:32:33.473Z,1.33
2022-08-22T21:35:02.823Z,1.70
2022-08-22T21:37:38.157Z,1.97
2022-08-22T21:40:15.150Z,1.47
2022-08-22T21:42:46.658Z,1.80
2022-08-22T21:45:28.111Z,1.67
2022-08-22T21:47:56.297Z,1.87
2022-08-22T21:50:37.870Z,1.60
2022-08-22T21:53:13.927Z,2.30
2022-08-22T21:55:44.341Z,2.00
2022-08-22T21:58:34.179Z,1.70
2022-08-22T22:01:29.047Z,1.87
2022-08-22T22:03:58.516Z,2.10
2022-08-22T22:06:27.274Z,1.90
2022-08-22T22:08:56.554Z,1.50
2022-08-22T22:11:24.576Z,2.00
2022-08-22T22:13:52.508Z,1.80
2022-08-22T22:16:25.593Z,2.10
2022-08-22T22:18:53.864Z,2.10
2022-08-22T22:21:21.844Z,2.03
2022-08-22T22:23:50.635Z,1.80
2022-08-22T22:26:20.970Z,1.80
2022-08-22T22:28:50.152Z,2.13
2022-08-22T22:31:19.255Z,1.90
2022-08-22T22:33:47.288Z,2.10
2022-08-22T22:36:18.871Z,1.90
2022-08-22T22:38:47.306Z,1.97
2022-08-22T22:41:15.422Z,2.03
2022-08-22T22:43:44.719Z,1.80
2022-08-22T22:46:12.648Z,2.40
2022-08-22T22:48:40.528Z,1.87
2022-08-22T22:51:10.406Z,2.27
2022-08-22T22:53:42.613Z,2.37
2022-08-22T22:56:16.152Z,2.13
2022-08-22T22:58:46.092Z,1.93
2022-08-22T23:01:17.786Z,2.37
2022-08-22T23:03:46.335Z,1.80
2022-08-22T23:06:16.614Z,2.60
2022-08-22T23:08:44.525Z,2.07
2022-08-22T23:11:13.726Z,2.67
2022-08-22T23:13:43.130Z,2.30
2022-08-22T23:16:14.935Z,2.57
2022-08-22T23:18:43.460Z,2.43
2022-08-22T23:21:13.012Z,2.50
2022-08-22T23:23:40.948Z,1.80
2022-08-22T23:26:09.196Z,2.50
2022-08-22T23:28:37.339Z,2.30
2022-08-22T23:31:14.909Z,2.13
2022-08-22T23:33:43.670Z,2.60
2022-08-22T23:36:13.800Z,2.17
2022-08-22T23:38:42.149Z,2.73
2022-08-22T23:41:11.795Z,1.80
2022-08-22T23:43:43.969Z,2.30
2022-08-22T23:46:13.818Z,2.00
2022-08-22T23:48:43.001Z,2.30
2022-08-22T23:51:12.362Z,2.37
2022-08-22T23:53:40.489Z,2.53
2022-08-22T23:56:19.799Z,2.53
2022-08-22T23:58:49.186Z,2.30
